Terminal Aerodrome Forecast
Issued by NWS Louisville, KY

Home | Current Version | Previous Version | Text Only | Print | Product List | Glossary On
Versions: 1 2 3 4 5 6 7 8 9 10 11 12 13 14 15
211
FTUS43 KLMK 081400 AAB
TAFLEX
TAF AMD
KLEX 081400Z 0814/0912 21008KT P6SM VCSH OVC003
     FM081500 25009KT 1SM -SN OVC003
     FM082000 24009KT 6SM BR VCSH OVC004
      TEMPO 0821/0824 2SM -SN BR OVC012
     FM090000 27012KT 3SM -SN BR OVC015
     FM090700 27008KT 5SM BR VCSH BKN015=

USA.gov is the U.S. government's official web portal to all federal, state and local government web resources and services.